Time;durP1;ratioP1;P1;durP2;ratioP2;P2;SDS_P1;SDS_P2;PMS_P1;PMS_P2;Temp;Humidity;BMP_temperature;BMP_pressure;BME280_temperature;BME280_humidity;BME280_pressure;Samples;Min_cycle;Max_cycle;Signal;HPM_P1;HPM_P2
2021/07/09 00:01:06;;;;;;;6.53;2.95;;;24.40;62.80;;;;;;5071055;28;20035;-65
2021/07/09 00:03:35;;;;;;;5.05;3.00;;;24.40;63.10;;;;;;5054752;28;20021;-65
2021/07/09 00:06:01;;;;;;;3.30;2.75;;;24.40;63.20;;;;;;5050010;28;20113;-65
2021/07/09 00:08:27;;;;;;;5.43;3.40;;;24.40;63.40;;;;;;5034701;28;20107;-65
2021/07/09 00:10:53;;;;;;;4.45;3.13;;;24.40;63.40;;;;;;5052953;28;20033;-65
2021/07/09 00:13:18;;;;;;;5.75;3.10;;;24.40;63.50;;;;;;5055451;28;20090;-65
2021/07/09 00:15:45;;;;;;;3.85;3.00;;;24.40;63.70;;;;;;5054941;28;20473;-65
2021/07/09 00:18:11;;;;;;;4.60;3.08;;;24.30;63.60;;;;;;5054675;28;20024;-65
2021/07/09 00:20:36;;;;;;;4.45;3.22;;;24.30;63.60;;;;;;5054682;28;20108;-65
2021/07/09 00:23:03;;;;;;;3.40;2.85;;;24.30;63.70;;;;;;5054620;28;20048;-65
2021/07/09 00:25:28;;;;;;;5.97;3.05;;;24.30;63.80;;;;;;5052462;28;20040;-65
2021/07/09 00:27:54;;;;;;;3.80;3.00;;;24.20;64.00;;;;;;5054547;28;20048;-65
2021/07/09 00:30:20;;;;;;;7.22;3.10;;;24.30;64.10;;;;;;5055011;28;20036;-65
2021/07/09 00:32:45;;;;;;;4.60;3.33;;;24.20;63.80;;;;;;5054133;28;20033;-65
2021/07/09 00:35:12;;;;;;;3.75;2.80;;;24.20;63.70;;;;;;5054324;28;20477;-65
2021/07/09 00:37:38;;;;;;;4.65;2.90;;;24.20;64.00;;;;;;5054186;28;20672;-65
2021/07/09 00:40:08;;;;;;;3.38;2.80;;;24.20;64.10;;;;;;5044080;28;20032;-65
2021/07/09 00:42:34;;;;;;;5.20;3.20;;;24.20;64.20;;;;;;5034005;28;20027;-65
2021/07/09 00:45:04;;;;;;;2.88;2.58;;;24.20;64.10;;;;;;5034169;28;20080;-65
2021/07/09 00:47:30;;;;;;;5.45;3.25;;;24.20;63.70;;;;;;5042219;28;20021;-65
2021/07/09 00:49:55;;;;;;;4.88;2.85;;;24.10;63.70;;;;;;5053905;28;20169;-65
2021/07/09 00:52:21;;;;;;;4.20;2.88;;;24.10;63.70;;;;;;5053630;28;20051;-65
2021/07/09 00:54:47;;;;;;;6.47;3.22;;;24.20;63.70;;;;;;5052544;28;20029;-65
2021/07/09 00:57:13;;;;;;;4.75;3.15;;;24.10;63.80;;;;;;5058646;28;20028;-65
2021/07/09 00:59:40;;;;;;;4.07;3.15;;;24.10;63.90;;;;;;5067281;28;20029;-65
2021/07/09 01:02:06;;;;;;;7.22;3.40;;;24.10;64.20;;;;;;5053566;28;20037;-65
2021/07/09 01:04:32;;;;;;;4.72;3.03;;;24.20;64.40;;;;;;5054197;28;20032;-65
2021/07/09 01:06:57;;;;;;;4.10;2.83;;;24.20;64.50;;;;;;5053461;28;20107;-65
2021/07/09 01:09:23;;;;;;;4.10;3.13;;;24.20;64.60;;;;;;5052198;28;20541;-65
2021/07/09 01:11:52;;;;;;;4.85;3.33;;;24.20;64.70;;;;;;5053715;28;20041;-65
2021/07/09 01:14:22;;;;;;;5.55;3.20;;;24.20;64.80;;;;;;5053756;28;20410;-65
2021/07/09 01:16:49;;;;;;;4.20;3.10;;;24.20;64.80;;;;;;5053663;28;20032;-65
2021/07/09 01:19:20;;;;;;;4.63;2.90;;;24.20;65.00;;;;;;5053541;28;20368;-65
2021/07/09 01:21:48;;;;;;;6.68;3.60;;;24.20;65.20;;;;;;5054030;28;20056;-65
2021/07/09 01:24:15;;;;;;;4.00;3.15;;;24.20;65.40;;;;;;5052462;28;20025;-65
2021/07/09 01:26:41;;;;;;;4.88;2.88;;;24.10;65.50;;;;;;5054528;28;20048;-65
2021/07/09 01:29:08;;;;;;;3.92;2.92;;;24.10;65.80;;;;;;5071220;28;20437;-65
2021/07/09 01:31:35;;;;;;;5.38;3.10;;;24.10;66.00;;;;;;5046664;28;20536;-65
2021/07/09 01:34:02;;;;;;;4.53;3.20;;;24.10;66.00;;;;;;5033509;28;20586;-65
2021/07/09 01:36:27;;;;;;;7.78;3.22;;;24.00;66.00;;;;;;5033219;28;20053;-65
2021/07/09 01:38:53;;;;;;;5.72;3.40;;;24.00;66.10;;;;;;5044401;28;20079;-65
2021/07/09 01:41:22;;;;;;;3.95;3.35;;;24.00;66.20;;;;;;5051004;28;20060;-65
2021/07/09 01:43:48;;;;;;;4.18;3.13;;;23.90;66.50;;;;;;5053071;28;20051;-65
2021/07/09 01:46:14;;;;;;;4.57;3.25;;;23.90;66.60;;;;;;5065813;28;20461;-65
2021/07/09 01:48:40;;;;;;;3.55;3.05;;;23.90;66.90;;;;;;5072957;28;20043;-65
2021/07/09 01:51:06;;;;;;;3.95;2.92;;;23.90;67.00;;;;;;5073174;28;20060;-65
2021/07/09 01:53:33;;;;;;;6.25;3.33;;;23.90;67.30;;;;;;5054981;28;20029;-65
2021/07/09 01:55:58;;;;;;;4.30;3.28;;;23.90;67.50;;;;;;5051996;28;20025;-65
2021/07/09 01:58:24;;;;;;;5.50;3.55;;;23.90;67.70;;;;;;5051654;28;20370;-65
2021/07/09 02:00:50;;;;;;;4.40;3.13;;;23.90;67.80;;;;;;5052888;28;20033;-65
2021/07/09 02:03:17;;;;;;;4.18;3.20;;;23.90;67.70;;;;;;5051027;28;20055;-65
2021/07/09 02:05:42;;;;;;;4.88;3.42;;;23.90;67.60;;;;;;5055719;28;20068;-65
2021/07/09 02:08:08;;;;;;;4.05;3.20;;;24.00;67.70;;;;;;5056921;28;20903;-65
2021/07/09 02:10:38;;;;;;;6.18;3.85;;;24.00;67.00;;;;;;5045653;28;20025;-65
2021/07/09 02:13:04;;;;;;;4.05;3.00;;;24.00;66.30;;;;;;5049877;28;20040;-65
2021/07/09 02:15:39;;;;;;;4.15;3.42;;;24.00;66.40;;;;;;5056826;28;20521;-65
2021/07/09 02:18:06;;;;;;;4.70;3.50;;;24.00;66.20;;;;;;5057096;28;20025;-65
2021/07/09 02:20:33;;;;;;;3.90;3.13;;;24.00;66.30;;;;;;5056825;28;20029;-65
2021/07/09 02:23:00;;;;;;;4.28;3.30;;;24.10;66.30;;;;;;5056798;28;20029;-65
2021/07/09 02:25:27;;;;;;;4.60;3.45;;;24.10;66.00;;;;;;5054532;28;20120;-65
2021/07/09 02:27:54;;;;;;;5.07;3.42;;;24.10;66.20;;;;;;5056762;28;20029;-65
2021/07/09 02:30:21;;;;;;;4.70;3.03;;;24.10;66.30;;;;;;5056727;28;20033;-65
2021/07/09 02:32:47;;;;;;;7.88;3.50;;;24.10;66.30;;;;;;5056549;28;20020;-65
2021/07/09 02:35:16;;;;;;;5.07;3.28;;;24.20;66.20;;;;;;5056940;28;20017;-65
2021/07/09 02:37:42;;;;;;;4.65;3.25;;;24.10;66.00;;;;;;5056461;28;20025;-65
2021/07/09 02:40:12;;;;;;;5.50;3.05;;;24.20;66.00;;;;;;5052899;28;20595;-65
2021/07/09 02:42:39;;;;;;;4.85;3.30;;;24.20;66.10;;;;;;5053623;28;20107;-65
2021/07/09 02:45:05;;;;;;;3.83;3.22;;;24.20;65.90;;;;;;5064543;28;20448;-65
2021/07/09 02:47:31;;;;;;;4.75;3.10;;;24.30;65.80;;;;;;5065381;28;20025;-65
2021/07/09 02:49:56;;;;;;;8.57;3.92;;;24.30;65.60;;;;;;5075850;28;20016;-65
2021/07/09 02:52:22;;;;;;;4.78;3.30;;;24.40;65.70;;;;;;5076182;28;20075;-65
2021/07/09 02:54:48;;;;;;;5.25;3.10;;;24.40;65.40;;;;;;5067607;28;20082;-65
2021/07/09 02:57:13;;;;;;;3.80;2.92;;;24.40;66.00;;;;;;5053963;28;20025;-65
2021/07/09 02:59:39;;;;;;;4.10;2.97;;;24.50;65.40;;;;;;5055976;28;20346;-65
2021/07/09 03:02:04;;;;;;;4.15;3.30;;;24.50;65.70;;;;;;5054484;28;20119;-65
2021/07/09 03:04:30;;;;;;;5.95;3.50;;;24.60;65.70;;;;;;5055379;28;20025;-65
2021/07/09 03:06:56;;;;;;;4.57;3.20;;;24.60;65.50;;;;;;5055605;28;20059;-65
2021/07/09 03:09:21;;;;;;;3.83;3.15;;;24.60;65.40;;;;;;5053311;28;20029;-65
2021/07/09 03:11:47;;;;;;;3.60;2.97;;;24.70;65.30;;;;;;5035737;28;20036;-65
2021/07/09 03:14:12;;;;;;;4.25;3.13;;;24.70;65.30;;;;;;5039037;28;20151;-65
2021/07/09 03:16:38;;;;;;;5.00;3.42;;;24.80;65.20;;;;;;5042385;28;20105;-65
2021/07/09 03:19:06;;;;;;;3.47;3.13;;;24.80;65.00;;;;;;5055899;28;20044;-65
2021/07/09 03:21:34;;;;;;;4.53;3.67;;;24.80;64.90;;;;;;5056055;28;20021;-65
2021/07/09 03:24:00;;;;;;;5.35;3.17;;;24.90;64.90;;;;;;5055860;28;20445;-65
2021/07/09 03:26:26;;;;;;;6.70;3.22;;;25.00;64.90;;;;;;5044407;28;20039;-65
2021/07/09 03:28:57;;;;;;;5.15;3.22;;;25.00;64.80;;;;;;5055727;28;20096;-65
2021/07/09 03:31:24;;;;;;;6.20;3.20;;;25.10;64.90;;;;;;5056036;28;20553;-65
2021/07/09 03:33:49;;;;;;;3.78;3.05;;;25.20;65.70;;;;;;5055734;28;20021;-65
2021/07/09 03:36:15;;;;;;;5.35;3.25;;;25.40;66.20;;;;;;5054566;28;20806;-65
2021/07/09 03:38:41;;;;;;;6.50;3.40;;;25.70;66.50;;;;;;5055054;28;20354;-65
2021/07/09 03:41:06;;;;;;;4.55;3.05;;;26.00;66.70;;;;;;5052822;28;20029;-65
2021/07/09 03:43:32;;;;;;;5.22;3.00;;;26.40;66.30;;;;;;5054385;28;20017;-65
2021/07/09 03:45:58;;;;;;;4.25;3.60;;;26.80;65.20;;;;;;5073751;28;20067;-65
2021/07/09 03:48:24;;;;;;;4.65;3.30;;;27.40;64.40;;;;;;5055764;28;20373;-65
2021/07/09 03:50:49;;;;;;;4.88;3.08;;;28.00;63.20;;;;;;5054921;28;20488;-65
2021/07/09 03:53:15;;;;;;;4.18;2.80;;;28.80;61.80;;;;;;5055405;28;20025;-65
2021/07/09 03:55:41;;;;;;;3.72;2.92;;;29.80;60.00;;;;;;5042075;28;20117;-65
2021/07/09 03:58:06;;;;;;;4.30;2.70;;;30.80;58.10;;;;;;5035207;28;20458;-65
2021/07/09 04:00:32;;;;;;;5.00;2.90;;;31.70;56.00;;;;;;5035207;28;20029;-65
2021/07/09 04:02:57;;;;;;;4.25;2.90;;;32.70;54.30;;;;;;5035312;28;20446;-65
2021/07/09 04:05:23;;;;;;;3.65;3.00;;;33.60;52.40;;;;;;5034881;28;20056;-65
2021/07/09 04:07:49;;;;;;;5.63;2.70;;;34.50;51.20;;;;;;5035278;28;20025;-65
2021/07/09 04:10:16;;;;;;;3.40;2.70;;;35.20;49.60;;;;;;5037660;28;20025;-65
2021/07/09 04:12:42;;;;;;;4.03;2.88;;;35.90;48.50;;;;;;5049403;28;20108;-65
2021/07/09 04:15:09;;;;;;;3.78;3.00;;;36.60;47.30;;;;;;5050289;28;20104;-65
2021/07/09 04:17:34;;;;;;;4.28;2.85;;;37.30;46.60;;;;;;5034916;28;20048;-65
2021/07/09 04:20:00;;;;;;;3.60;2.90;;;37.80;45.60;;;;;;5051595;28;20468;-65
2021/07/09 04:22:26;;;;;;;4.20;2.90;;;38.40;44.80;;;;;;5055074;28;20103;-65
2021/07/09 04:24:52;;;;;;;2.90;2.45;;;39.00;43.90;;;;;;5053219;28;20029;-65
2021/07/09 04:27:17;;;;;;;4.55;2.78;;;39.40;43.40;;;;;;5054237;28;20029;-65
2021/07/09 04:29:43;;;;;;;3.70;2.88;;;40.00;42.60;;;;;;5048214;28;20025;-65
2021/07/09 04:32:09;;;;;;;3.83;2.58;;;40.40;41.70;;;;;;5034831;28;20029;-65
2021/07/09 04:34:34;;;;;;;3.72;2.75;;;40.90;41.00;;;;;;5034990;28;20061;-65
2021/07/09 04:37:02;;;;;;;3.85;2.80;;;41.20;40.30;;;;;;5034768;28;20508;-65
2021/07/09 04:39:28;;;;;;;2.75;2.53;;;41.70;39.80;;;;;;5035603;28;20033;-65
2021/07/09 04:41:54;;;;;;;5.18;2.67;;;42.00;39.30;;;;;;5054504;28;20025;-66
2021/07/09 04:44:19;;;;;;;5.22;2.72;;;42.30;39.10;;;;;;5056767;28;20393;-65
2021/07/09 04:46:45;;;;;;;3.00;2.50;;;42.60;38.80;;;;;;5052613;28;20029;-65
2021/07/09 04:49:11;;;;;;;3.50;2.42;;;42.80;38.40;;;;;;5048950;28;20384;-65
2021/07/09 04:51:36;;;;;;;2.92;2.63;;;43.00;38.20;;;;;;5073189;28;20024;-65
2021/07/09 04:54:02;;;;;;;3.90;3.20;;;43.20;38.00;;;;;;5065649;28;20080;-65
2021/07/09 04:56:28;;;;;;;3.05;2.75;;;43.40;37.80;;;;;;5043307;28;20524;-65
2021/07/09 04:58:53;;;;;;;3.72;2.58;;;43.50;37.40;;;;;;5053754;28;20066;-65
2021/07/09 05:01:19;;;;;;;2.90;2.70;;;43.70;37.20;;;;;;5050748;28;20029;-65
2021/07/09 05:03:45;;;;;;;2.70;2.50;;;43.80;37.00;;;;;;5054132;28;20025;-66
2021/07/09 05:06:10;;;;;;;4.15;2.80;;;44.00;36.80;;;;;;5053422;28;20047;-65
2021/07/09 05:08:36;;;;;;;3.30;2.42;;;44.20;36.70;;;;;;5042479;28;20393;-66
2021/07/09 05:11:03;;;;;;;6.38;2.80;;;44.30;36.30;;;;;;5051402;28;20029;-65
2021/07/09 05:13:29;;;;;;;3.08;2.40;;;44.50;36.30;;;;;;5038904;28;20031;-66
2021/07/09 05:15:55;;;;;;;3.33;2.53;;;44.50;36.10;;;;;;5052964;28;20073;-65
2021/07/09 05:18:21;;;;;;;3.13;2.67;;;44.40;36.10;;;;;;5051663;28;20029;-66
2021/07/09 05:20:46;;;;;;;4.97;2.92;;;44.40;36.10;;;;;;5052508;28;20441;-65
2021/07/09 05:23:12;;;;;;;2.85;2.53;;;44.40;35.90;;;;;;5051699;28;20548;-64
2021/07/09 05:25:37;;;;;;;3.20;2.80;;;44.40;35.60;;;;;;5050975;28;20119;-63
2021/07/09 05:28:06;;;;;;;4.05;2.60;;;44.30;35.60;;;;;;5040118;28;20063;-63
2021/07/09 05:30:32;;;;;;;4.00;2.90;;;43.90;35.60;;;;;;5045051;28;20516;-63
2021/07/09 05:32:57;;;;;;;3.83;2.80;;;43.30;36.10;;;;;;5047873;28;20029;-63
2021/07/09 05:35:23;;;;;;;3.30;3.00;;;42.30;36.50;;;;;;5046009;28;20033;-63
2021/07/09 05:37:49;;;;;;;4.57;3.10;;;41.30;37.40;;;;;;5052609;28;20067;-63
2021/07/09 05:40:15;;;;;;;3.88;2.92;;;40.20;38.30;;;;;;5042347;28;20087;-63
2021/07/09 05:42:40;;;;;;;4.38;3.08;;;39.20;39.30;;;;;;5051880;28;20021;-63
2021/07/09 05:45:06;;;;;;;4.25;2.92;;;38.30;40.10;;;;;;5040816;28;20365;-63
2021/07/09 05:47:32;;;;;;;6.05;3.13;;;37.50;41.00;;;;;;5043760;28;20464;-63
2021/07/09 05:49:58;;;;;;;4.00;3.55;;;36.70;41.80;;;;;;5038741;28;20047;-63
2021/07/09 05:52:24;;;;;;;6.15;3.00;;;36.00;42.70;;;;;;5035092;28;20037;-63
2021/07/09 05:54:49;;;;;;;5.15;3.17;;;35.40;43.20;;;;;;5040372;28;20056;-63
2021/07/09 05:57:15;;;;;;;3.80;3.15;;;34.90;44.00;;;;;;5037882;28;20069;-63
2021/07/09 05:59:41;;;;;;;3.72;2.90;;;34.40;44.50;;;;;;5040230;28;20055;-62
2021/07/09 06:02:07;;;;;;;4.35;3.30;;;34.00;45.20;;;;;;5039802;28;20030;-63
2021/07/09 06:04:32;;;;;;;5.03;3.30;;;33.70;45.80;;;;;;5036053;28;20127;-62
2021/07/09 06:06:58;;;;;;;4.13;3.13;;;33.30;46.30;;;;;;5035621;28;20021;-61
2021/07/09 06:09:24;;;;;;;3.75;3.28;;;33.00;46.60;;;;;;5043328;28;20579;-61
2021/07/09 06:11:50;;;;;;;4.60;3.50;;;32.80;47.40;;;;;;5031843;28;20033;-61
2021/07/09 06:14:15;;;;;;;4.63;3.10;;;32.50;48.20;;;;;;5034451;28;20033;-62
2021/07/09 06:16:42;;;;;;;4.18;3.05;;;32.40;48.60;;;;;;5036410;28;20087;-60
2021/07/09 06:19:07;;;;;;;5.90;3.08;;;32.20;48.60;;;;;;5036379;28;20147;-62
2021/07/09 06:21:33;;;;;;;3.88;3.10;;;32.00;49.00;;;;;;5038990;28;20037;-60
2021/07/09 06:23:59;;;;;;;5.65;3.40;;;31.80;49.40;;;;;;5038496;28;20025;-61
2021/07/09 06:26:24;;;;;;;3.47;3.17;;;31.70;49.30;;;;;;5037326;28;20511;-60
2021/07/09 06:28:50;;;;;;;4.68;3.20;;;31.50;49.30;;;;;;5039647;28;20370;-62
2021/07/09 06:31:16;;;;;;;4.28;3.45;;;31.40;49.70;;;;;;5036205;28;20037;-65
2021/07/09 06:33:42;;;;;;;5.38;3.20;;;31.30;49.90;;;;;;5031885;28;20033;-61
2021/07/09 06:36:07;;;;;;;4.05;3.08;;;31.20;50.60;;;;;;5031286;28;20086;-62
2021/07/09 06:38:33;;;;;;;4.97;3.10;;;31.10;50.20;;;;;;5040277;28;20584;-62
2021/07/09 06:40:59;;;;;;;4.60;3.50;;;30.90;50.20;;;;;;5040093;28;20064;-62
2021/07/09 06:43:24;;;;;;;3.88;3.17;;;30.80;50.40;;;;;;5035444;28;20547;-61
2021/07/09 06:45:50;;;;;;;4.38;3.25;;;30.80;50.70;;;;;;5038598;28;20029;-64
2021/07/09 06:48:16;;;;;;;3.90;3.08;;;30.70;50.80;;;;;;5028789;28;20544;-63
2021/07/09 06:50:41;;;;;;;4.70;3.50;;;30.60;50.80;;;;;;5027224;28;20032;-62
2021/07/09 06:53:07;;;;;;;4.45;3.40;;;30.50;50.80;;;;;;5034391;28;20033;-63
2021/07/09 06:55:33;;;;;;;4.80;3.05;;;30.50;51.50;;;;;;5033152;28;20154;-65
2021/07/09 06:57:58;;;;;;;4.25;3.20;;;30.40;50.70;;;;;;5041896;28;20816;-62
2021/07/09 07:00:26;;;;;;;3.42;3.13;;;30.30;50.50;;;;;;5042722;28;20044;-63
2021/07/09 07:02:52;;;;;;;5.38;3.58;;;30.30;50.70;;;;;;5029862;28;20082;-63
2021/07/09 07:05:18;;;;;;;4.20;3.20;;;30.30;50.70;;;;;;5035712;28;20025;-63
2021/07/09 07:07:44;;;;;;;3.90;3.38;;;30.20;50.80;;;;;;5033540;28;20026;-61
2021/07/09 07:10:10;;;;;;;6.85;3.42;;;30.20;51.30;;;;;;5040193;28;20045;-61
2021/07/09 07:12:37;;;;;;;4.55;3.28;;;30.10;51.50;;;;;;5039636;28;20029;-63
2021/07/09 07:15:05;;;;;;;6.40;3.55;;;30.10;52.00;;;;;;5036050;28;20127;-64
2021/07/09 07:17:31;;;;;;;4.82;3.78;;;30.10;51.70;;;;;;5038717;28;20029;-63
2021/07/09 07:19:57;;;;;;;3.97;3.38;;;30.00;52.00;;;;;;5036162;28;20029;-62
2021/07/09 07:22:24;;;;;;;4.50;3.45;;;30.00;51.80;;;;;;5036375;28;20040;-62
2021/07/09 07:24:51;;;;;;;6.57;3.55;;;29.90;52.10;;;;;;5032283;28;20076;-63
2021/07/09 07:27:24;;;;;;;5.60;3.55;;;29.90;52.40;;;;;;5037180;28;20141;-62
2021/07/09 07:29:50;;;;;;;5.00;4.10;;;29.90;52.60;;;;;;5031457;28;20676;-64
2021/07/09 07:32:16;;;;;;;4.80;3.70;;;29.90;52.50;;;;;;5033620;28;20029;-64
2021/07/09 07:34:42;;;;;;;5.40;4.22;;;29.80;52.80;;;;;;5036314;28;20048;-64
2021/07/09 07:37:08;;;;;;;6.20;4.32;;;29.80;52.50;;;;;;5035020;28;20074;-64
2021/07/09 07:39:35;;;;;;;5.22;3.85;;;29.80;52.80;;;;;;5031011;28;20048;-63
2021/07/09 07:42:02;;;;;;;4.88;4.10;;;29.80;53.20;;;;;;5036273;28;20051;-64
2021/07/09 07:44:27;;;;;;;5.15;3.60;;;29.80;53.10;;;;;;5033415;28;20070;-64
2021/07/09 07:46:54;;;;;;;3.97;3.60;;;29.80;53.30;;;;;;5030796;28;20469;-63
2021/07/09 07:49:24;;;;;;;6.28;3.95;;;29.80;53.50;;;;;;5029026;28;20028;-62
2021/07/09 07:51:50;;;;;;;5.32;3.75;;;29.70;53.90;;;;;;5026838;28;20033;-63
2021/07/09 07:54:17;;;;;;;5.85;3.72;;;29.70;53.90;;;;;;5036942;28;20128;-63
2021/07/09 07:56:44;;;;;;;4.93;3.75;;;29.70;54.20;;;;;;5032434;28;20037;-63
2021/07/09 07:59:10;;;;;;;8.57;4.40;;;29.70;54.80;;;;;;5031369;28;20025;-63
2021/07/09 08:01:36;;;;;;;4.63;4.00;;;29.70;55.00;;;;;;5032812;28;20964;-62
2021/07/09 08:04:02;;;;;;;4.80;4.03;;;29.70;55.10;;;;;;5030048;28;20029;-63
2021/07/09 08:06:28;;;;;;;5.70;4.30;;;29.70;55.20;;;;;;5034831;28;20034;-63
2021/07/09 08:08:53;;;;;;;5.95;4.40;;;29.70;54.80;;;;;;5034708;28;20408;-63
2021/07/09 08:11:19;;;;;;;6.60;4.70;;;29.70;55.30;;;;;;5035778;28;20025;-63
2021/07/09 08:13:44;;;;;;;5.60;3.95;;;29.70;55.60;;;;;;5037125;28;20119;-63
2021/07/09 08:16:11;;;;;;;6.50;4.07;;;29.70;55.90;;;;;;5031076;28;20029;-63
2021/07/09 08:18:37;;;;;;;6.90;4.28;;;29.70;56.20;;;;;;5035810;28;20021;-63
2021/07/09 08:21:03;;;;;;;5.93;4.47;;;29.70;56.40;;;;;;5035299;28;20032;-63
2021/07/09 08:23:29;;;;;;;7.72;3.90;;;29.70;56.10;;;;;;5031347;28;20076;-63
2021/07/09 08:25:56;;;;;;;7.82;4.28;;;29.70;55.80;;;;;;5033013;28;20036;-63
2021/07/09 08:28:22;;;;;;;6.80;3.97;;;29.70;55.80;;;;;;5030744;28;20033;-65
2021/07/09 08:30:48;;;;;;;4.75;3.80;;;29.70;56.10;;;;;;5032902;28;20051;-63
2021/07/09 08:33:14;;;;;;;5.18;4.43;;;29.70;55.50;;;;;;5029678;28;20912;-64
2021/07/09 08:35:39;;;;;;;5.95;3.92;;;29.70;55.30;;;;;;5035034;28;20037;-63
2021/07/09 08:38:05;;;;;;;5.30;4.20;;;29.70;55.50;;;;;;5032215;28;20095;-63
2021/07/09 08:40:31;;;;;;;4.68;4.05;;;29.70;55.70;;;;;;5024807;28;20030;-63
2021/07/09 08:42:57;;;;;;;6.65;4.07;;;29.60;55.20;;;;;;5027583;28;20108;-63
2021/07/09 08:45:23;;;;;;;7.72;4.30;;;29.60;55.20;;;;;;5029891;28;20091;-62
2021/07/09 08:47:49;;;;;;;5.22;4.00;;;29.60;54.80;;;;;;5022660;28;20120;-62
2021/07/09 08:50:15;;;;;;;6.20;3.75;;;29.50;55.00;;;;;;5025544;28;20179;-63
2021/07/09 08:52:42;;;;;;;4.93;3.85;;;29.50;55.20;;;;;;5016107;28;20059;-62
2021/07/09 08:55:13;;;;;;;6.35;4.53;;;29.50;55.30;;;;;;5028948;28;20043;-64
2021/07/09 08:57:40;;;;;;;4.55;3.60;;;29.50;55.30;;;;;;5031171;28;20040;-62
2021/07/09 09:00:26;;;;;;;6.53;3.75;;;29.40;54.80;;;;;;5022434;28;20033;-63
2021/07/09 09:02:52;;;;;;;4.75;3.90;;;29.30;54.90;;;;;;5030392;28;20025;-63
2021/07/09 09:05:22;;;;;;;5.93;3.63;;;29.30;54.90;;;;;;5023059;28;20037;-63
2021/07/09 09:08:02;;;;;;;5.38;4.07;;;29.30;54.50;;;;;;5029522;28;20036;-64
2021/07/09 09:10:39;;;;;;;4.80;4.05;;;29.20;54.50;;;;;;5026722;28;20104;-63
2021/07/09 09:13:16;;;;;;;5.63;3.90;;;29.20;54.00;;;;;;5026209;28;20579;-64
2021/07/09 09:16:04;;;;;;;5.15;3.95;;;29.20;54.30;;;;;;5026108;28;20357;-64
2021/07/09 09:18:55;;;;;;;4.55;3.83;;;29.20;54.20;;;;;;5023281;28;20192;-64
2021/07/09 09:21:25;;;;;;;5.13;3.72;;;29.20;54.50;;;;;;5026690;28;20144;-64
2021/07/09 09:23:50;;;;;;;5.55;3.88;;;29.10;54.30;;;;;;5029388;28;20652;-62
2021/07/09 09:26:42;;;;;;;4.43;4.00;;;29.10;54.30;;;;;;5025502;28;20053;-66
2021/07/09 09:29:30;;;;;;;5.07;4.00;;;29.10;54.10;;;;;;5031367;28;20057;-65
2021/07/09 09:31:58;;;;;;;5.72;3.70;;;29.00;54.10;;;;;;5026913;28;21385;-62
2021/07/09 09:34:37;;;;;;;5.50;4.07;;;29.00;53.50;;;;;;5029766;28;21777;-61
2021/07/09 09:37:03;;;;;;;5.47;3.85;;;29.00;53.60;;;;;;5027820;28;20137;-63
2021/07/09 09:39:29;;;;;;;3.78;3.40;;;29.00;53.70;;;;;;5031372;28;20108;-65
2021/07/09 09:42:08;;;;;;;6.05;3.60;;;29.00;53.60;;;;;;5034041;28;20048;-65
2021/07/09 09:44:35;;;;;;;4.32;3.92;;;29.00;53.50;;;;;;5031000;28;20029;-66
2021/07/09 09:47:14;;;;;;;6.78;3.75;;;29.00;53.80;;;;;;5026783;28;20079;-65
2021/07/09 09:49:43;;;;;;;4.57;4.05;;;29.00;53.20;;;;;;5028212;28;20029;-64
2021/07/09 09:52:09;;;;;;;5.20;3.67;;;29.00;53.10;;;;;;5034254;28;20032;-65
2021/07/09 09:54:35;;;;;;;4.82;3.60;;;29.00;52.10;;;;;;5032546;28;20033;-65
2021/07/09 09:57:01;;;;;;;3.90;3.45;;;29.00;52.10;;;;;;5028223;28;20041;-65
2021/07/09 09:59:28;;;;;;;4.93;3.60;;;29.00;51.80;;;;;;5027054;28;20029;-64
2021/07/09 10:02:02;;;;;;;6.13;4.00;;;29.00;51.60;;;;;;5022794;28;20578;-65
2021/07/09 10:04:28;;;;;;;4.60;3.47;;;28.90;51.10;;;;;;5020906;28;20652;-65
2021/07/09 10:06:55;;;;;;;5.38;3.33;;;28.90;50.90;;;;;;5021836;28;20056;-63
2021/07/09 10:09:22;;;;;;;4.65;3.60;;;28.90;51.50;;;;;;5021780;28;20994;-65
2021/07/09 10:11:48;;;;;;;5.15;4.07;;;28.90;51.20;;;;;;5025429;28;20099;-64
2021/07/09 10:14:16;;;;;;;5.00;3.70;;;28.90;51.00;;;;;;5024253;28;20473;-65
2021/07/09 10:16:45;;;;;;;6.53;3.75;;;28.90;50.90;;;;;;5024999;28;20124;-65
2021/07/09 10:19:14;;;;;;;6.47;3.72;;;28.90;50.60;;;;;;5022727;28;20040;-66
2021/07/09 10:21:40;;;;;;;5.13;4.05;;;28.90;49.70;;;;;;5027557;28;20025;-64
2021/07/09 10:24:08;;;;;;;4.22;3.70;;;28.90;49.80;;;;;;5027511;28;20120;-64
2021/07/09 10:26:42;;;;;;;4.20;3.38;;;28.90;49.50;;;;;;5029391;28;20041;-64
2021/07/09 10:29:12;;;;;;;4.70;3.63;;;28.90;49.40;;;;;;5027228;28;20033;-64
2021/07/09 10:31:40;;;;;;;5.85;3.63;;;28.90;49.60;;;;;;5026668;28;20033;-65
2021/07/09 10:34:38;;;;;;;5.50;3.92;;;28.90;49.60;;;;;;5029287;28;20026;-64
2021/07/09 10:37:17;;;;;;;4.50;3.35;;;28.90;49.50;;;;;;5033536;28;20135;-64
2021/07/09 10:39:48;;;;;;;5.15;3.90;;;28.90;49.30;;;;;;5028707;28;20037;-64
2021/07/09 10:42:29;;;;;;;;;;;28.80;49.40;;;;;;5032739;28;20087;-64
2021/07/09 10:45:10;;;;;;;4.60;3.90;;;28.80;49.70;;;;;;5036969;28;20388;-64
2021/07/09 10:47:48;;;;;;;5.95;3.85;;;28.80;49.90;;;;;;5031888;28;20025;-63
2021/07/09 10:50:34;;;;;;;9.80;4.15;;;28.80;49.70;;;;;;5032050;28;20029;-64
2021/07/09 10:53:23;;;;;;;6.65;3.83;;;28.80;49.50;;;;;;5036641;28;20504;-63
2021/07/09 10:55:52;;;;;;;4.32;3.80;;;28.80;49.30;;;;;;5035688;28;20128;-65
2021/07/09 10:58:28;;;;;;;5.63;4.13;;;28.80;49.10;;;;;;5032988;28;20078;-63
2021/07/09 11:01:16;;;;;;;4.97;4.22;;;28.70;49.40;;;;;;5031844;28;20040;-64
2021/07/09 11:03:44;;;;;;;5.75;4.22;;;28.70;49.00;;;;;;5028251;28;20032;-65
2021/07/09 11:06:17;;;;;;;5.45;3.90;;;28.80;48.90;;;;;;5018712;28;20036;-63
2021/07/09 11:08:52;;;;;;;5.65;4.30;;;28.70;49.30;;;;;;5029906;28;20032;-63
2021/07/09 11:11:34;;;;;;;5.65;4.13;;;28.70;49.20;;;;;;5034189;28;20029;-63
2021/07/09 11:14:20;;;;;;;4.55;3.72;;;28.70;49.00;;;;;;5034024;28;20083;-64
2021/07/09 11:16:59;;;;;;;5.32;4.13;;;28.70;48.70;;;;;;5030841;28;20033;-64
2021/07/09 11:19:34;;;;;;;6.15;3.72;;;28.70;49.10;;;;;;5030299;28;20123;-63
2021/07/09 11:22:18;;;;;;;6.18;4.60;;;28.70;48.90;;;;;;5032081;28;20033;-60
2021/07/09 11:24:58;;;;;;;5.35;4.13;;;28.70;48.90;;;;;;5027023;28;20039;-60
2021/07/09 11:27:27;;;;;;;6.05;4.32;;;28.70;49.00;;;;;;5023795;28;20491;-62
2021/07/09 11:29:59;;;;;;;5.55;4.35;;;28.60;48.90;;;;;;5025009;28;20116;-61
2021/07/09 11:32:24;;;;;;;6.20;3.88;;;28.60;49.20;;;;;;5032182;28;20033;-60
2021/07/09 11:34:55;;;;;;;5.68;4.25;;;28.70;49.10;;;;;;5035541;28;20046;-63
2021/07/09 11:37:22;;;;;;;;;;;28.70;49.00;;;;;;5029852;28;20127;-62
2021/07/09 11:39:50;;;;;;;5.40;4.13;;;28.60;49.20;;;;;;5023925;28;19940;-63
2021/07/09 11:42:20;;;;;;;5.35;4.57;;;28.60;49.20;;;;;;5045703;28;20082;-62
2021/07/09 11:44:57;;;;;;;4.55;3.95;;;28.60;49.20;;;;;;5031207;28;20013;-64
2021/07/09 11:47:24;;;;;;;5.30;4.22;;;28.60;49.60;;;;;;5035516;28;20103;-63
2021/07/09 11:49:52;;;;;;;6.63;4.50;;;28.60;49.80;;;;;;5029057;28;20043;-63
2021/07/09 11:52:29;;;;;;;4.90;4.35;;;28.70;49.50;;;;;;5033203;28;20091;-63
2021/07/09 11:54:57;;;;;;;4.72;3.90;;;28.60;49.80;;;;;;5028826;28;20052;-62
2021/07/09 11:57:26;;;;;;;6.70;4.10;;;28.60;49.70;;;;;;5032016;28;20044;-63
2021/07/09 11:59:55;;;;;;;4.47;3.88;;;28.60;49.90;;;;;;5027703;28;20057;-62
2021/07/09 12:02:27;;;;;;;5.68;4.22;;;28.60;49.70;;;;;;5031773;28;20393;-63
2021/07/09 12:04:54;;;;;;;4.43;4.00;;;28.70;49.60;;;;;;5030221;28;20033;-62
2021/07/09 12:07:37;;;;;;;7.20;4.03;;;28.70;49.70;;;;;;5030444;28;20143;-62
2021/07/09 12:10:17;;;;;;;7.05;3.97;;;28.70;50.10;;;;;;5027235;28;20530;-62
2021/07/09 12:12:46;;;;;;;5.00;4.20;;;28.70;50.00;;;;;;5030398;28;20524;-63
2021/07/09 12:15:18;;;;;;;5.80;4.00;;;28.70;49.80;;;;;;5029477;28;20067;-60
2021/07/09 12:17:49;;;;;;;5.22;4.10;;;28.70;49.70;;;;;;5028886;28;20707;-61
2021/07/09 12:20:16;;;;;;;4.68;3.95;;;28.70;49.80;;;;;;5028792;28;20044;-60
2021/07/09 12:22:43;;;;;;;6.03;5.22;;;28.60;49.70;;;;;;5031875;28;20017;-61
2021/07/09 12:25:34;;;;;;;4.95;4.10;;;28.60;50.40;;;;;;5035433;28;20102;-61
2021/07/09 12:28:06;;;;;;;5.18;4.10;;;28.60;49.80;;;;;;5035385;28;20056;-63
2021/07/09 12:30:37;;;;;;;6.43;4.10;;;28.70;49.50;;;;;;5029264;28;20033;-62
2021/07/09 12:33:05;;;;;;;6.53;3.80;;;28.60;49.50;;;;;;5031493;28;20025;-64
2021/07/09 12:35:34;;;;;;;5.63;4.22;;;28.60;49.40;;;;;;5036671;28;20132;-65
2021/07/09 12:38:09;;;;;;;4.82;3.70;;;28.60;49.50;;;;;;5030251;28;20088;-64
2021/07/09 12:40:46;;;;;;;7.45;4.13;;;28.60;49.90;;;;;;5031438;28;20128;-65
2021/07/09 12:43:19;;;;;;;5.68;4.18;;;28.60;50.00;;;;;;5032266;28;20199;-66
2021/07/09 12:46:04;;;;;;;5.65;4.15;;;28.60;50.10;;;;;;5032520;28;20039;-64
2021/07/09 12:48:45;;;;;;;7.00;4.18;;;28.60;49.90;;;;;;5032334;28;20068;-66
2021/07/09 12:51:18;;;;;;;4.30;3.83;;;28.60;49.90;;;;;;5024431;28;20505;-64
2021/07/09 12:54:07;;;;;;;5.05;4.00;;;28.60;49.80;;;;;;5028949;28;20044;-65